Time;durP1;ratioP1;P1;durP2;ratioP2;P2;SDS_P1;SDS_P2;PMS_P1;PMS_P2;Temp;Humidity;BMP_temperature;BMP_pressure;BME280_temperature;BME280_humidity;BME280_pressure;Samples;Min_cycle;Max_cycle;Signal;HPM_P1;HPM_P2
2021/05/06 00:31:27;;;;;;;2.30;1.00;;;20.20;43.30;;;;;;5016187;28;20369;-57
2021/05/06 00:33:48;;;;;;;2.75;1.13;;;20.30;43.40;;;;;;5015753;28;20107;-57
2021/05/06 00:36:14;;;;;;;2.05;0.85;;;20.20;43.30;;;;;;5016084;28;20128;-56
2021/05/06 00:38:47;;;;;;;1.80;1.00;;;20.30;43.40;;;;;;5015794;28;20033;-56
2021/05/06 00:41:36;;;;;;;1.63;0.80;;;20.20;43.40;;;;;;5015484;28;20026;-57
2021/05/06 00:44:21;;;;;;;1.25;0.70;;;20.30;43.40;;;;;;5015925;28;20066;-57
2021/05/06 00:57:21;;;;;;;1.45;0.82;;;20.20;43.30;;;;;;5015673;28;20025;-58
2021/05/06 01:00:12;;;;;;;1.38;0.90;;;20.20;43.30;;;;;;5015601;28;20412;-56
2021/05/06 01:02:51;;;;;;;1.48;1.02;;;20.20;43.30;;;;;;5015574;28;20022;-57
2021/05/06 01:05:27;;;;;;;1.92;1.00;;;20.20;43.30;;;;;;5015064;28;20535;-59
2021/05/06 01:08:20;;;;;;;1.65;0.80;;;20.20;43.30;;;;;;5015607;28;20022;-59
2021/05/06 01:13:07;;;;;;;1.40;0.90;;;20.20;43.30;;;;;;5014524;28;20369;-59
2021/05/06 01:15:33;;;;;;;1.42;0.80;;;20.10;43.30;;;;;;5015556;28;20033;-53
2021/05/06 01:17:58;;;;;;;1.30;0.80;;;20.10;43.20;;;;;;5015561;28;20036;-58
2021/05/06 01:20:24;;;;;;;1.27;1.00;;;20.10;43.20;;;;;;5015396;28;20053;-58
2021/05/06 01:22:49;;;;;;;1.38;0.80;;;20.10;43.20;;;;;;5014896;28;20014;-57
2021/05/06 01:25:16;;;;;;;1.17;0.80;;;20.10;43.20;;;;;;5015135;28;20034;-57
2021/05/06 01:27:58;;;;;;;0.90;0.70;;;20.10;43.20;;;;;;5015217;28;20030;-54
2021/05/06 01:33:46;;;;;;;1.00;0.63;;;20.10;43.20;;;;;;4954619;29;20050;-58
2021/05/06 01:36:25;;;;;;;1.02;0.80;;;20.10;43.20;;;;;;5010628;28;20056;-57
2021/05/06 01:39:04;;;;;;;1.13;0.73;;;20.00;43.20;;;;;;5015351;28;20025;-55
2021/05/06 01:44:13;;;;;;;1.17;1.00;;;20.10;43.30;;;;;;5015113;28;20132;-54
2021/05/06 02:00:10;;;;;;;1.58;0.80;;;20.00;43.10;;;;;;5014897;28;20037;-54
2021/05/06 02:02:35;;;;;;;1.17;0.55;;;20.00;43.10;;;;;;5014704;28;20044;-51
2021/05/06 02:05:02;;;;;;;0.80;0.75;;;20.00;43.10;;;;;;5014481;28;20341;-55
2021/05/06 02:07:28;;;;;;;1.52;0.70;;;20.00;43.20;;;;;;5015279;28;20034;-54
2021/05/06 02:09:53;;;;;;;1.38;0.90;;;20.00;43.10;;;;;;5014716;28;20534;-57
2021/05/06 02:12:19;;;;;;;1.15;0.75;;;20.00;43.10;;;;;;5014885;28;20049;-55
2021/05/06 02:15:02;;;;;;;1.10;0.80;;;20.00;43.20;;;;;;5014890;28;20025;-56
2021/05/06 02:17:27;;;;;;;1.10;0.60;;;20.00;43.10;;;;;;5014619;28;20030;-54
2021/05/06 02:19:53;;;;;;;1.27;0.85;;;19.90;43.10;;;;;;5014963;28;20041;-56
2021/05/06 02:22:20;;;;;;;1.30;0.75;;;19.90;43.10;;;;;;5014698;28;20045;-56
2021/05/06 02:24:46;;;;;;;0.57;0.57;;;19.90;43.10;;;;;;4997612;28;20492;-55
2021/05/06 02:27:12;;;;;;;1.00;0.80;;;19.90;43.10;;;;;;5018139;28;20425;-55
2021/05/06 02:29:38;;;;;;;0.98;0.60;;;19.90;43.10;;;;;;5018214;28;20448;-54
2021/05/06 02:32:05;;;;;;;0.40;0.40;;;19.90;43.10;;;;;;5018185;28;20057;-56
2021/05/06 02:34:31;;;;;;;1.10;0.70;;;19.90;43.00;;;;;;5018241;28;20045;-53
2021/05/06 02:36:57;;;;;;;0.90;0.70;;;19.90;43.10;;;;;;5018203;28;20054;-55
2021/05/06 02:39:22;;;;;;;1.70;0.52;;;19.90;43.10;;;;;;5018137;28;20084;-55
2021/05/06 02:41:48;;;;;;;0.70;0.60;;;19.90;43.00;;;;;;5018263;28;20026;-55
2021/05/06 02:44:14;;;;;;;0.80;0.70;;;19.90;43.10;;;;;;5017696;28;20109;-56
2021/05/06 02:46:40;;;;;;;0.50;0.50;;;19.90;43.10;;;;;;5017861;28;20034;-53
2021/05/06 02:49:05;;;;;;;0.90;0.57;;;19.90;43.00;;;;;;5017899;28;20079;-56
2021/05/06 02:51:43;;;;;;;0.63;0.43;;;19.90;43.10;;;;;;5018156;28;20022;-55
2021/05/06 02:54:08;;;;;;;0.70;0.50;;;19.90;43.00;;;;;;5017964;28;20026;-56
2021/05/06 02:57:02;;;;;;;0.88;0.68;;;19.90;43.00;;;;;;5018015;28;20429;-56
2021/05/06 03:04:40;;;;;;;0.70;0.60;;;19.80;43.00;;;;;;5017438;28;20381;-51
2021/05/06 03:07:09;;;;;;;0.50;0.50;;;19.80;43.00;;;;;;5017395;28;20025;-57
2021/05/06 03:23:03;;;;;;;0.50;0.50;;;19.80;43.00;;;;;;5017647;28;20108;-52
2021/05/06 03:25:30;;;;;;;0.55;0.55;;;19.80;43.00;;;;;;5017144;28;20129;-56
2021/05/06 03:28:05;;;;;;;0.40;0.40;;;19.80;43.00;;;;;;5016998;28;20056;-51
2021/05/06 03:41:39;;;;;;;0.68;0.40;;;19.70;42.90;;;;;;5016995;28;20080;-56
2021/05/06 03:44:29;;;;;;;1.08;0.50;;;19.70;42.90;;;;;;5017138;28;20030;-57
2021/05/06 04:27:24;;;;;;;0.55;0.55;;;19.50;42.70;;;;;;5016171;28;20038;-49
2021/05/06 04:30:14;;;;;;;2.03;0.50;;;19.40;42.80;;;;;;5016075;28;20022;-52
2021/05/06 04:35:41;;;;;;;3.25;0.60;;;19.50;43.00;;;;;;5015360;28;20049;-54
2021/05/06 04:38:12;;;;;;;3.28;0.52;;;19.50;43.00;;;;;;5016374;28;20137;-52
2021/05/06 04:54:23;;;;;;;1.85;0.40;;;19.60;43.70;;;;;;5015745;28;20125;-54
2021/05/06 04:57:07;;;;;;;1.95;0.30;;;19.70;43.70;;;;;;5015642;28;20032;-51
2021/05/06 05:04:59;;;;;;;0.30;0.30;;;19.80;43.90;;;;;;5015102;28;20380;-54
2021/05/06 05:07:31;;;;;;;0.50;0.45;;;19.80;44.00;;;;;;5015631;28;20101;-57
2021/05/06 05:17:58;;;;;;;0.60;0.43;;;19.90;43.90;;;;;;5015467;28;20038;-55
2021/05/06 05:23:35;;;;;;;2.60;0.50;;;19.90;43.90;;;;;;4975145;28;20049;-51
2021/05/06 05:26:04;;;;;;;0.55;0.30;;;19.90;43.80;;;;;;5015067;28;20464;-56
2021/05/06 05:28:30;;;;;;;0.38;0.38;;;20.00;43.80;;;;;;5014766;28;20440;-55
2021/05/06 05:30:56;;;;;;;5.47;0.50;;;19.90;43.80;;;;;;5014716;28;20037;-53
2021/05/06 05:33:24;;;;;;;1.20;0.43;;;20.00;43.90;;;;;;5014807;28;20018;-63
2021/05/06 05:39:11;;;;;;;2.97;0.80;;;20.00;44.00;;;;;;5015472;28;20034;-51
2021/05/06 05:44:38;;;;;;;0.82;0.40;;;20.10;43.90;;;;;;5014791;28;20377;-54
2021/05/06 05:47:53;;;;;;;1.13;0.68;;;20.10;43.90;;;;;;5014956;28;20125;-50
2021/05/06 05:55:32;;;;;;;1.60;0.60;;;20.10;44.00;;;;;;5015209;28;20117;-54
2021/05/06 05:57:58;;;;;;;1.48;0.70;;;20.10;43.90;;;;;;5014650;28;20109;-52
2021/05/06 06:00:23;;;;;;;0.60;0.60;;;20.10;43.90;;;;;;5017615;28;20029;-54
2021/05/06 06:02:49;;;;;;;0.45;0.45;;;20.20;43.90;;;;;;5018818;28;20104;-56
2021/05/06 06:05:14;;;;;;;3.75;0.60;;;20.20;43.90;;;;;;5018825;28;20062;-56
2021/05/06 06:07:40;;;;;;;0.57;0.50;;;20.20;43.80;;;;;;5018751;28;20033;-51
2021/05/06 06:10:06;;;;;;;0.50;0.50;;;20.20;43.80;;;;;;5018767;28;20449;-55
2021/05/06 06:12:31;;;;;;;1.13;0.60;;;20.20;43.80;;;;;;5019001;28;20030;-54
2021/05/06 06:15:05;;;;;;;0.50;0.50;;;20.20;43.80;;;;;;5018756;28;20041;-55
2021/05/06 06:17:39;;;;;;;3.35;0.75;;;20.20;43.80;;;;;;5018513;28;20053;-54
2021/05/06 06:20:06;;;;;;;1.30;1.20;;;20.30;43.80;;;;;;5018809;28;20032;-53
2021/05/06 06:22:31;;;;;;;5.38;1.45;;;20.30;43.70;;;;;;5018332;28;20054;-57
2021/05/06 06:24:58;;;;;;;1.23;1.05;;;20.30;43.60;;;;;;5018046;28;20076;-55
2021/05/06 06:27:24;;;;;;;2.78;1.60;;;20.30;43.60;;;;;;5017764;28;20033;-57
2021/05/06 06:29:49;;;;;;;1.42;1.17;;;20.30;43.70;;;;;;5018219;28;20026;-56
2021/05/06 06:32:17;;;;;;;0.73;0.73;;;20.30;43.80;;;;;;5017954;28;20160;-57
2021/05/06 06:34:42;;;;;;;1.33;0.90;;;20.30;43.80;;;;;;5017380;28;20029;-58
2021/05/06 06:37:08;;;;;;;1.17;0.95;;;20.40;43.90;;;;;;5017965;28;20056;-56
2021/05/06 06:39:37;;;;;;;3.13;1.25;;;20.40;43.90;;;;;;5018113;28;20108;-58
2021/05/06 06:42:03;;;;;;;1.65;1.08;;;20.40;44.00;;;;;;5017725;28;20050;-54
2021/05/06 06:44:29;;;;;;;0.98;0.85;;;20.40;44.10;;;;;;5017892;28;20425;-57
2021/05/06 06:47:02;;;;;;;5.35;0.93;;;20.40;44.20;;;;;;5020322;28;20030;-57
2021/05/06 06:49:28;;;;;;;1.95;1.10;;;20.40;44.20;;;;;;5037197;28;20025;-58
2021/05/06 06:51:54;;;;;;;1.25;1.00;;;20.40;44.30;;;;;;5037605;28;20025;-57
2021/05/06 06:54:20;;;;;;;0.93;0.93;;;20.50;44.40;;;;;;5037881;28;20325;-58
2021/05/06 06:56:45;;;;;;;3.13;0.85;;;20.50;45.10;;;;;;5037363;28;20025;-57
2021/05/06 06:59:11;;;;;;;2.33;1.13;;;20.50;44.50;;;;;;5037074;28;20076;-56
2021/05/06 07:01:38;;;;;;;1.25;0.95;;;20.50;44.50;;;;;;5037571;28;20033;-56
2021/05/06 07:04:04;;;;;;;2.65;1.00;;;20.50;44.50;;;;;;5037401;28;20444;-57
2021/05/06 07:06:29;;;;;;;1.77;1.05;;;20.50;44.50;;;;;;5037601;28;20029;-55
2021/05/06 07:08:55;;;;;;;1.73;1.00;;;20.60;44.60;;;;;;5019881;28;20079;-56
2021/05/06 07:11:20;;;;;;;1.30;0.70;;;20.60;44.70;;;;;;5036862;28;20037;-54
2021/05/06 07:13:46;;;;;;;1.30;1.20;;;20.60;44.70;;;;;;5037225;28;20092;-55
2021/05/06 07:16:13;;;;;;;1.48;0.80;;;20.60;44.70;;;;;;5037578;28;20026;-58
2021/05/06 07:18:38;;;;;;;0.93;0.90;;;20.60;44.70;;;;;;5019969;28;20032;-58
2021/05/06 07:21:05;;;;;;;0.77;0.77;;;20.60;44.70;;;;;;5036828;28;20025;-57
2021/05/06 07:23:31;;;;;;;1.65;1.23;;;20.60;44.70;;;;;;5036949;28;20026;-57
2021/05/06 07:25:58;;;;;;;1.05;0.95;;;20.70;44.80;;;;;;5037182;28;20516;-58
2021/05/06 07:28:35;;;;;;;2.65;0.85;;;20.70;44.80;;;;;;5037083;28;20025;-57
2021/05/06 07:31:02;;;;;;;1.17;0.90;;;20.70;44.80;;;;;;5037331;28;20021;-57
2021/05/06 07:33:29;;;;;;;1.42;1.02;;;20.70;44.80;;;;;;5037056;28;20349;-56
2021/05/06 07:35:56;;;;;;;1.10;0.98;;;20.70;44.80;;;;;;5018778;28;20148;-57
2021/05/06 07:38:22;;;;;;;1.00;0.75;;;20.80;44.90;;;;;;5036586;28;20044;-57
2021/05/06 07:40:48;;;;;;;1.67;1.05;;;20.80;44.80;;;;;;5036805;28;20052;-55
2021/05/06 07:43:13;;;;;;;1.65;1.25;;;20.80;44.80;;;;;;5036777;28;20440;-58
2021/05/06 07:45:40;;;;;;;0.93;0.80;;;20.80;44.80;;;;;;5036819;28;20033;-58
2021/05/06 07:48:06;;;;;;;2.90;0.85;;;20.80;44.80;;;;;;5036961;28;20494;-58
2021/05/06 07:50:32;;;;;;;1.08;1.00;;;20.90;44.90;;;;;;5036432;28;20018;-56
2021/05/06 07:53:07;;;;;;;0.95;0.93;;;20.90;44.80;;;;;;5036227;28;20475;-56
2021/05/06 07:55:33;;;;;;;1.65;1.23;;;20.90;44.80;;;;;;5036537;28;20021;-58
2021/05/06 07:57:59;;;;;;;1.35;1.00;;;20.90;44.80;;;;;;5036334;28;20034;-58
2021/05/06 08:00:26;;;;;;;1.02;0.85;;;20.90;44.80;;;;;;5035781;28;20032;-55
2021/05/06 08:02:52;;;;;;;1.05;0.88;;;21.00;44.80;;;;;;5036302;28;20401;-55
2021/05/06 08:05:18;;;;;;;1.05;0.77;;;21.00;44.80;;;;;;5034708;28;20403;-57
2021/05/06 08:07:44;;;;;;;0.85;0.85;;;21.00;44.90;;;;;;5035978;28;20025;-55
2021/05/06 08:10:11;;;;;;;2.22;0.90;;;21.00;44.80;;;;;;5036573;28;20329;-56
2021/05/06 08:12:37;;;;;;;0.60;0.60;;;21.00;44.80;;;;;;5036036;28;20108;-58
2021/05/06 08:15:07;;;;;;;0.82;0.80;;;21.00;44.80;;;;;;5036408;28;20068;-58
2021/05/06 08:17:34;;;;;;;0.90;0.90;;;21.00;44.80;;;;;;5036253;28;20017;-57
2021/05/06 08:20:02;;;;;;;1.17;1.08;;;21.10;44.80;;;;;;5035960;28;20057;-59
2021/05/06 08:22:28;;;;;;;3.00;0.80;;;21.10;44.70;;;;;;5035313;28;20025;-58
2021/05/06 08:24:53;;;;;;;1.30;1.20;;;21.10;44.50;;;;;;5035411;28;20095;-57
2021/05/06 08:27:19;;;;;;;1.33;1.23;;;21.10;44.40;;;;;;5035453;28;20456;-57
2021/05/06 08:29:45;;;;;;;1.73;0.93;;;21.10;44.20;;;;;;5036135;28;20029;-58
2021/05/06 08:32:11;;;;;;;1.15;1.05;;;21.10;44.10;;;;;;5035850;28;20029;-59
2021/05/06 08:34:36;;;;;;;2.17;1.35;;;21.10;43.90;;;;;;5035787;28;20187;-57
2021/05/06 08:37:02;;;;;;;1.02;0.93;;;21.20;43.80;;;;;;5035289;28;20049;-55
2021/05/06 08:39:28;;;;;;;1.17;1.08;;;21.20;43.60;;;;;;5035533;28;20187;-55
2021/05/06 08:41:55;;;;;;;3.47;1.60;;;21.20;43.40;;;;;;5035185;28;20030;-58
2021/05/06 08:44:25;;;;;;;1.25;1.15;;;21.20;43.10;;;;;;5035578;28;20061;-56
2021/05/06 08:47:03;;;;;;;1.83;0.88;;;21.20;42.50;;;;;;5035461;28;20025;-63
2021/05/06 08:49:30;;;;;;;6.65;1.83;;;21.20;42.40;;;;;;5035422;28;20017;-50
2021/05/06 08:51:57;;;;;;;5.35;1.20;;;21.10;42.10;;;;;;5035540;28;20094;-54
2021/05/06 08:54:24;;;;;;;2.47;0.90;;;21.10;42.00;;;;;;5034965;28;20013;-54
2021/05/06 08:56:50;;;;;;;2.33;1.10;;;21.20;42.20;;;;;;5035203;28;20467;-47
2021/05/06 08:59:16;;;;;;;2.55;1.08;;;21.20;42.10;;;;;;5035669;28;20087;-46
2021/05/06 09:01:41;;;;;;;0.60;0.60;;;21.20;42.10;;;;;;5035335;28;20364;-47
2021/05/06 09:04:07;;;;;;;0.60;0.60;;;21.20;42.00;;;;;;5034866;28;20346;-47
2021/05/06 09:06:32;;;;;;;2.83;0.95;;;21.20;42.00;;;;;;5035202;28;20029;-48
2021/05/06 09:09:01;;;;;;;3.28;0.88;;;21.20;42.00;;;;;;5034951;28;20049;-46
2021/05/06 09:11:29;;;;;;;1.90;0.43;;;21.30;42.00;;;;;;5035064;28;20036;-45
2021/05/06 09:14:01;;;;;;;0.70;0.65;;;21.30;42.00;;;;;;5035132;28;20040;-46
2021/05/06 09:16:35;;;;;;;1.35;0.80;;;21.30;42.00;;;;;;5035043;28;20075;-49
2021/05/06 09:19:06;;;;;;;0.95;0.60;;;21.30;42.00;;;;;;5035086;28;20116;-49
2021/05/06 09:21:33;;;;;;;1.23;0.70;;;21.30;42.00;;;;;;5034501;28;20411;-48
2021/05/06 09:24:10;;;;;;;2.90;0.90;;;21.30;42.70;;;;;;5017558;28;20352;-47
2021/05/06 09:26:40;;;;;;;0.85;0.68;;;21.30;42.10;;;;;;5035068;28;20029;-47
2021/05/06 09:29:08;;;;;;;3.80;0.68;;;21.30;42.20;;;;;;5035037;28;20032;-45
2021/05/06 09:31:40;;;;;;;1.67;0.80;;;21.30;42.30;;;;;;5034618;28;20068;-48
2021/05/06 09:34:07;;;;;;;0.50;0.50;;;21.30;42.30;;;;;;5034544;28;20022;-46
2021/05/06 09:36:34;;;;;;;3.25;0.93;;;21.30;42.30;;;;;;5034554;28;20049;-45
2021/05/06 09:39:02;;;;;;;1.10;0.50;;;21.30;42.30;;;;;;5034986;28;20029;-49
2021/05/06 09:41:30;;;;;;;1.15;0.50;;;21.30;42.40;;;;;;5034758;28;20030;-50
2021/05/06 09:44:07;;;;;;;0.60;0.60;;;21.30;42.40;;;;;;5034846;28;20022;-50
2021/05/06 09:46:41;;;;;;;3.25;0.85;;;21.30;42.40;;;;;;5034289;28;20495;-48
2021/05/06 09:49:14;;;;;;;2.58;0.70;;;21.30;42.40;;;;;;5034320;28;20052;-47
2021/05/06 09:51:43;;;;;;;1.42;0.50;;;21.30;42.40;;;;;;5034564;28;20029;-46
2021/05/06 09:54:14;;;;;;;1.08;0.70;;;21.30;42.50;;;;;;5017305;28;20423;-49
2021/05/06 09:56:41;;;;;;;1.45;0.82;;;21.30;42.40;;;;;;5034687;28;20120;-55
2021/05/06 09:59:09;;;;;;;7.32;1.00;;;21.30;42.30;;;;;;5033001;28;20017;-45
2021/05/06 10:01:38;;;;;;;3.05;0.70;;;21.40;42.40;;;;;;5034327;28;20026;-47
2021/05/06 10:04:13;;;;;;;0.82;0.80;;;21.30;42.20;;;;;;5034742;28;20025;-48
2021/05/06 10:06:39;;;;;;;1.67;0.75;;;21.40;42.20;;;;;;5034238;28;20040;-47
2021/05/06 10:09:06;;;;;;;1.20;0.70;;;21.40;42.20;;;;;;5034237;28;20021;-48
2021/05/06 10:11:31;;;;;;;1.90;0.75;;;21.40;42.40;;;;;;5033906;28;20049;-46
2021/05/06 10:13:59;;;;;;;2.60;0.90;;;21.40;42.50;;;;;;5034549;28;20048;-46
2021/05/06 10:16:26;;;;;;;3.13;0.70;;;21.40;42.70;;;;;;5034200;28;20336;-49
2021/05/06 10:18:52;;;;;;;2.63;0.75;;;21.40;42.90;;;;;;5034300;28;20034;-48
2021/05/06 10:21:20;;;;;;;1.90;1.52;;;21.40;43.00;;;;;;5052726;28;20048;-48
2021/05/06 10:23:47;;;;;;;4.88;1.88;;;21.40;42.80;;;;;;5053703;28;20423;-50
2021/05/06 10:26:14;;;;;;;1.70;0.80;;;21.50;42.90;;;;;;5054323;28;20052;-46
2021/05/06 10:28:40;;;;;;;1.23;0.75;;;21.50;42.90;;;;;;5054350;28;20403;-47
2021/05/06 10:31:08;;;;;;;4.18;0.93;;;21.50;43.00;;;;;;5053630;28;20448;-50
2021/05/06 10:33:41;;;;;;;5.63;1.20;;;21.60;43.10;;;;;;5054456;28;20131;-48
2021/05/06 10:36:08;;;;;;;1.02;0.50;;;21.60;43.00;;;;;;5051522;28;20361;-48
2021/05/06 10:38:35;;;;;;;2.25;0.75;;;21.60;43.70;;;;;;5033845;28;20100;-45
2021/05/06 10:41:25;;;;;;;1.05;0.45;;;21.60;43.10;;;;;;5043264;28;20049;-46
2021/05/06 10:43:54;;;;;;;1.33;0.70;;;21.60;43.10;;;;;;5053635;28;20497;-48
2021/05/06 10:46:22;;;;;;;0.77;0.38;;;21.60;43.20;;;;;;5054812;28;20075;-48
2021/05/06 10:48:53;;;;;;;3.50;0.77;;;21.60;43.50;;;;;;5057643;28;20535;-49
2021/05/06 10:51:42;;;;;;;1.48;0.75;;;21.60;43.60;;;;;;5039968;28;20029;-49
2021/05/06 10:54:36;;;;;;;2.97;1.10;;;21.70;44.30;;;;;;5057442;28;20029;-47
2021/05/06 10:57:12;;;;;;;4.38;1.30;;;21.70;44.40;;;;;;5057379;28;20110;-47
2021/05/06 10:59:39;;;;;;;6.25;1.52;;;21.70;44.20;;;;;;5057376;28;20170;-53
2021/05/06 11:02:06;;;;;;;3.33;1.27;;;21.70;43.90;;;;;;5057168;28;20036;-50
2021/05/06 11:04:36;;;;;;;2.70;0.98;;;21.70;43.90;;;;;;5057072;28;20036;-51
2021/05/06 11:07:19;;;;;;;1.52;1.10;;;21.70;43.80;;;;;;5057321;28;20485;-53
2021/05/06 11:09:47;;;;;;;6.27;1.60;;;21.80;43.70;;;;;;5057084;28;20025;-53
2021/05/06 11:12:18;;;;;;;2.40;1.10;;;21.70;43.60;;;;;;5056994;28;20486;-50
2021/05/06 11:14:59;;;;;;;3.78;1.17;;;21.70;43.70;;;;;;5057219;28;20025;-53
2021/05/06 11:17:40;;;;;;;1.50;1.00;;;21.80;43.60;;;;;;5057089;28;20036;-52
2021/05/06 11:20:11;;;;;;;2.53;1.02;;;21.80;43.60;;;;;;5056884;28;20122;-55
2021/05/06 11:22:51;;;;;;;2.95;1.00;;;21.70;43.50;;;;;;5057093;28;20051;-51
2021/05/06 11:25:26;;;;;;;1.40;0.82;;;21.70;43.10;;;;;;5056937;28;20029;-52
2021/05/06 11:27:56;;;;;;;1.60;1.00;;;21.70;43.10;;;;;;5057198;28;20499;-56
2021/05/06 11:30:36;;;;;;;4.13;0.93;;;21.70;42.90;;;;;;5056904;28;20021;-53
2021/05/06 11:33:19;;;;;;;2.58;1.00;;;21.70;43.00;;;;;;5056742;28;20025;-52
2021/05/06 11:36:11;;;;;;;1.75;0.77;;;21.70;43.10;;;;;;5056364;28;20036;-55
2021/05/06 11:38:37;;;;;;;3.75;0.90;;;21.70;43.20;;;;;;5056952;28;20036;-57
2021/05/06 11:41:06;;;;;;;4.68;0.82;;;21.60;43.20;;;;;;5046171;28;20048;-55
2021/05/06 11:43:34;;;;;;;2.45;0.85;;;21.70;43.30;;;;;;5056837;28;20040;-54
2021/05/06 11:46:26;;;;;;;2.58;1.02;;;21.70;43.50;;;;;;5056497;28;20112;-60
2021/05/06 11:49:03;;;;;;;3.90;0.70;;;21.70;43.60;;;;;;5045551;28;20515;-57
2021/05/06 11:51:38;;;;;;;3.20;1.15;;;21.70;43.80;;;;;;5056177;28;20442;-51
2021/05/06 11:54:10;;;;;;;2.13;0.98;;;21.70;44.10;;;;;;5056768;28;20028;-56
2021/05/06 11:56:38;;;;;;;3.88;0.75;;;21.70;44.00;;;;;;5045825;28;20047;-57
2021/05/06 11:59:15;;;;;;;2.08;0.55;;;21.70;44.00;;;;;;5036125;28;20052;-55
2021/05/06 12:01:40;;;;;;;17.35;0.93;;;21.70;44.10;;;;;;5036347;28;20080;-57
2021/05/06 12:04:06;;;;;;;1.65;0.73;;;21.70;44.10;;;;;;5036208;28;20433;-56
2021/05/06 12:06:34;;;;;;;3.85;1.30;;;21.70;44.10;;;;;;5036519;28;20322;-57
2021/05/06 12:09:02;;;;;;;2.22;1.20;;;21.80;44.00;;;;;;5036021;28;20017;-55
2021/05/06 12:11:34;;;;;;;4.30;1.65;;;21.70;43.50;;;;;;5036182;28;20032;-56
2021/05/06 12:14:00;;;;;;;4.13;1.48;;;21.70;42.40;;;;;;5036079;28;20029;-52
2021/05/06 12:16:29;;;;;;;1.90;1.70;;;21.70;41.50;;;;;;5028581;28;20025;-50
2021/05/06 12:19:00;;;;;;;2.70;1.85;;;21.70;40.80;;;;;;5022177;28;20025;-58
2021/05/06 12:21:39;;;;;;;6.50;2.42;;;21.70;40.50;;;;;;5020741;28;20018;-56
2021/05/06 12:24:07;;;;;;;4.75;2.08;;;21.70;40.30;;;;;;5035699;28;20330;-54
2021/05/06 12:26:33;;;;;;;5.30;1.58;;;21.70;40.00;;;;;;5035854;28;20022;-49
2021/05/06 12:28:59;;;;;;;3.55;1.45;;;21.70;39.90;;;;;;5035577;28;20033;-53
2021/05/06 12:31:25;;;;;;;1.20;1.10;;;21.70;40.10;;;;;;5035718;28;20030;-51
2021/05/06 12:33:51;;;;;;;6.28;1.30;;;21.70;40.00;;;;;;5035840;28;20056;-48
2021/05/06 12:36:17;;;;;;;2.70;0.88;;;21.70;40.00;;;;;;5035794;28;20150;-53
2021/05/06 12:38:44;;;;;;;3.90;1.10;;;21.70;40.00;;;;;;5035678;28;20060;-48
2021/05/06 12:41:11;;;;;;;3.28;1.00;;;21.70;40.00;;;;;;5035363;28;20033;-47
2021/05/06 12:43:50;;;;;;;2.15;1.30;;;21.70;40.20;;;;;;5035258;28;20022;-51
2021/05/06 12:46:25;;;;;;;1.42;1.15;;;21.70;40.30;;;;;;5035548;28;20120;-52
2021/05/06 12:48:57;;;;;;;3.00;1.20;;;21.70;40.30;;;;;;5035667;28;20344;-50
2021/05/06 12:51:31;;;;;;;1.73;1.10;;;21.70;39.90;;;;;;5035420;28;20104;-45
2021/05/06 12:54:06;;;;;;;1.92;1.05;;;21.70;40.00;;;;;;5035346;28;20029;-50
2021/05/06 12:56:35;;;;;;;5.78;0.98;;;21.70;40.20;;;;;;5035294;28;20120;-48
2021/05/06 12:59:27;;;;;;;1.42;1.05;;;21.70;40.30;;;;;;5035321;28;20030;-53
2021/05/06 13:02:05;;;;;;;4.47;0.88;;;21.70;40.10;;;;;;5035470;28;20013;-51
2021/05/06 13:04:58;;;;;;;9.45;1.33;;;21.70;40.20;;;;;;5034660;28;20466;-48
2021/05/06 13:07:26;;;;;;;3.80;1.35;;;21.60;40.20;;;;;;5035087;28;20104;-49
2021/05/06 13:09:52;;;;;;;2.65;0.80;;;21.60;40.20;;;;;;5034723;28;20021;-52
2021/05/06 13:12:26;;;;;;;2.70;0.80;;;21.60;40.20;;;;;;5035279;28;20116;-54
2021/05/06 13:15:00;;;;;;;1.85;0.95;;;21.60;40.20;;;;;;5035163;28;20356;-49
2021/05/06 13:17:30;;;;;;;3.05;0.80;;;21.70;40.30;;;;;;5035058;28;20064;-52
2021/05/06 13:19:58;;;;;;;1.63;0.82;;;21.60;40.30;;;;;;5034540;28;20017;-49
2021/05/06 13:22:25;;;;;;;3.63;0.60;;;21.60;40.40;;;;;;5035004;28;20459;-48
2021/05/06 13:24:52;;;;;;;4.35;0.80;;;21.60;40.40;;;;;;5034988;28;20037;-52
2021/05/06 13:27:23;;;;;;;1.48;0.60;;;21.60;40.50;;;;;;5034957;28;20029;-50
2021/05/06 13:29:57;;;;;;;0.70;0.55;;;21.60;40.50;;;;;;5035292;28;20029;-51
2021/05/06 13:32:38;;;;;;;2.45;0.60;;;21.60;40.60;;;;;;5035316;28;20025;-49
2021/05/06 13:35:05;;;;;;;0.93;0.63;;;21.60;40.60;;;;;;5035328;28;20037;-47
2021/05/06 13:37:41;;;;;;;1.33;0.70;;;21.60;40.70;;;;;;5034976;28;20471;-51
2021/05/06 13:40:09;;;;;;;1.00;0.50;;;21.70;40.80;;;;;;5034782;28;20463;-49
2021/05/06 13:42:35;;;;;;;3.10;0.80;;;21.60;40.70;;;;;;5034744;28;20131;-50
2021/05/06 13:45:01;;;;;;;1.27;0.60;;;21.60;40.80;;;;;;5034638;28;20131;-47
2021/05/06 13:47:27;;;;;;;0.68;0.45;;;21.60;40.80;;;;;;5035095;28;20115;-49
2021/05/06 13:49:53;;;;;;;1.15;0.68;;;21.60;40.90;;;;;;5034799;28;20057;-50
2021/05/06 13:52:20;;;;;;;1.75;0.70;;;21.60;40.90;;;;;;5035057;28;20036;-52
2021/05/06 13:54:45;;;;;;;0.60;0.60;;;21.60;40.90;;;;;;5034168;28;20471;-49
2021/05/06 13:57:11;;;;;;;5.45;0.50;;;21.60;41.00;;;;;;5034602;28;20025;-52
2021/05/06 13:59:36;;;;;;;1.13;0.80;;;21.70;41.00;;;;;;5034695;28;20111;-50
2021/05/06 14:02:02;;;;;;;2.35;0.70;;;21.60;41.00;;;;;;5034822;28;20508;-49
2021/05/06 14:04:28;;;;;;;3.67;0.70;;;21.60;41.00;;;;;;5034967;28;20120;-53
2021/05/06 14:06:53;;;;;;;3.72;1.00;;;21.60;40.90;;;;;;5034178;28;20120;-49
2021/05/06 14:09:19;;;;;;;2.47;0.80;;;21.60;40.90;;;;;;5034348;28;20079;-50
2021/05/06 14:11:47;;;;;;;2.90;0.85;;;21.60;40.90;;;;;;5034930;28;20091;-57
2021/05/06 14:14:13;;;;;;;1.63;0.80;;;21.60;40.90;;;;;;5034189;28;20511;-52
2021/05/06 14:16:41;;;;;;;1.83;0.60;;;21.60;40.90;;;;;;5034742;28;20071;-49
2021/05/06 14:19:08;;;;;;;3.00;0.95;;;21.60;41.00;;;;;;5034570;28;20395;-55
2021/05/06 14:21:38;;;;;;;3.92;1.17;;;21.60;41.00;;;;;;5035864;28;20040;-51
2021/05/06 14:24:04;;;;;;;1.67;0.70;;;21.50;41.00;;;;;;5020255;28;20029;-54
2021/05/06 14:26:30;;;;;;;1.00;0.90;;;21.50;41.20;;;;;;5038383;28;20045;-50
2021/05/06 14:28:55;;;;;;;4.00;0.88;;;21.50;41.30;;;;;;5038117;28;20018;-61
2021/05/06 14:31:21;;;;;;;3.65;1.60;;;21.40;41.40;;;;;;5038105;28;20060;-52
2021/05/06 14:33:47;;;;;;;8.48;2.67;;;21.40;41.40;;;;;;5020331;28;20036;-52
2021/05/06 14:36:12;;;;;;;4.40;2.70;;;21.40;41.40;;;;;;5037826;28;20030;-51
2021/05/06 14:38:40;;;;;;;4.55;2.42;;;21.40;41.40;;;;;;5037840;28;20025;-50
2021/05/06 14:41:06;;;;;;;5.18;2.47;;;21.40;41.60;;;;;;5037860;28;20032;-54
2021/05/06 14:43:32;;;;;;;2.60;1.95;;;21.40;41.60;;;;;;5038122;28;20021;-49
2021/05/06 14:45:58;;;;;;;3.25;1.83;;;21.30;41.70;;;;;;5037929;28;20053;-51
2021/05/06 14:48:24;;;;;;;5.30;1.60;;;21.30;41.70;;;;;;5037755;28;20087;-52
2021/05/06 14:50:49;;;;;;;4.60;1.50;;;21.40;41.90;;;;;;5037653;28;20033;-48
2021/05/06 14:53:15;;;;;;;3.33;1.33;;;21.40;42.00;;;;;;5037801;28;20044;-49
2021/05/06 14:55:41;;;;;;;3.72;1.42;;;21.40;42.00;;;;;;5037601;28;20486;-46
2021/05/06 14:58:06;;;;;;;1.40;1.30;;;21.30;42.00;;;;;;5037918;28;20345;-46
2021/05/06 15:00:32;;;;;;;1.65;1.40;;;21.40;42.10;;;;;;5037483;28;20060;-48
2021/05/06 15:03:01;;;;;;;4.63;1.40;;;21.40;42.20;;;;;;5037448;28;20175;-51
2021/05/06 15:05:27;;;;;;;3.17;1.25;;;21.40;42.20;;;;;;5037363;28;20132;-50
2021/05/06 15:07:53;;;;;;;1.80;1.05;;;21.40;42.20;;;;;;5037546;28;20437;-48
2021/05/06 15:10:18;;;;;;;2.50;1.05;;;21.40;42.20;;;;;;5037311;28;20175;-47
2021/05/06 15:12:46;;;;;;;3.25;1.48;;;21.40;42.30;;;;;;5037676;28;20048;-51
2021/05/06 15:15:12;;;;;;;1.73;1.20;;;21.50;42.40;;;;;;5037003;28;20510;-46
2021/05/06 15:17:38;;;;;;;1.30;1.10;;;21.50;42.40;;;;;;5036761;28;20052;-45
2021/05/06 15:20:22;;;;;;;2.33;1.10;;;21.50;42.40;;;;;;5037277;28;20091;-53
2021/05/06 15:22:47;;;;;;;3.03;1.25;;;21.50;42.50;;;;;;5037182;28;20021;-48
2021/05/06 15:25:13;;;;;;;1.88;1.05;;;21.50;42.50;;;;;;5036728;28;20034;-50
2021/05/06 15:27:44;;;;;;;1.30;1.10;;;21.50;42.50;;;;;;5037647;28;20056;-49
2021/05/06 15:30:12;;;;;;;3.85;1.10;;;21.50;42.50;;;;;;5019347;28;20029;-48
2021/05/06 15:32:38;;;;;;;3.85;1.40;;;21.50;42.50;;;;;;5036351;28;20064;-48
2021/05/06 15:35:05;;;;;;;2.70;1.10;;;21.50;42.40;;;;;;5036525;28;20061;-53
2021/05/06 15:37:31;;;;;;;1.25;1.02;;;21.50;42.50;;;;;;5037085;28;20057;-53
2021/05/06 15:39:57;;;;;;;2.67;1.30;;;21.50;42.70;;;;;;5036803;28;20025;-48
2021/05/06 15:42:23;;;;;;;5.55;1.20;;;21.50;42.90;;;;;;5036798;28;20025;-53
2021/05/06 15:44:48;;;;;;;3.00;1.10;;;21.50;43.00;;;;;;5035268;28;20091;-50
2021/05/06 15:47:14;;;;;;;1.23;0.90;;;21.50;43.00;;;;;;5036301;28;20090;-48
2021/05/06 15:49:40;;;;;;;1.17;0.70;;;21.50;43.10;;;;;;5036729;28;20029;-48
2021/05/06 15:52:11;;;;;;;3.75;1.08;;;21.50;43.10;;;;;;5019155;28;20120;-47
2021/05/06 15:54:37;;;;;;;11.73;1.52;;;21.60;43.50;;;;;;5036232;28;20060;-46
2021/05/06 15:57:03;;;;;;;1.10;0.88;;;21.60;43.60;;;;;;5036266;28;20441;-46